createdAt,value
2019-03-31T00:01:16.642Z,6.02
2019-03-31T00:03:45.042Z,5.86
2019-03-31T00:06:13.431Z,5.73
2019-03-31T00:08:41.841Z,5.64
2019-03-31T00:11:10.231Z,5.57
2019-03-31T00:13:38.618Z,5.62
2019-03-31T00:16:07.032Z,5.73
2019-03-31T00:18:35.418Z,5.76
2019-03-31T00:21:03.813Z,5.73
2019-03-31T00:23:32.217Z,5.61
2019-03-31T00:26:00.600Z,5.46
2019-03-31T00:28:29.018Z,5.32
2019-03-31T00:30:57.404Z,5.23
2019-03-31T00:33:25.791Z,5.19
2019-03-31T00:35:54.208Z,5.13
2019-03-31T00:38:22.603Z,5.11
2019-03-31T00:40:50.995Z,5.28
2019-03-31T00:43:19.409Z,5.48
2019-03-31T00:45:47.797Z,5.64
2019-03-31T00:48:16.185Z,5.78
2019-03-31T00:50:44.591Z,5.87
2019-03-31T00:53:12.980Z,5.87
2019-03-31T00:55:41.377Z,5.74
2019-03-31T00:58:09.791Z,5.57
2019-03-31T01:00:48.543Z,5.40
2019-03-31T01:03:18.815Z,5.29
2019-03-31T01:05:47.683Z,5.22
2019-03-31T01:08:16.238Z,5.20
2019-03-31T01:10:45.063Z,5.20
2019-03-31T01:13:14.466Z,5.22
2019-03-31T01:15:43.024Z,5.18
2019-03-31T01:18:12.164Z,5.13
2019-03-31T01:20:40.629Z,5.03
2019-03-31T01:23:09.357Z,4.93
2019-03-31T01:25:37.840Z,4.84
2019-03-31T01:28:06.362Z,4.84
2019-03-31T01:30:34.822Z,4.88
2019-03-31T01:33:03.412Z,4.91
2019-03-31T01:35:31.940Z,4.97
2019-03-31T01:38:00.325Z,5.02
2019-03-31T01:40:28.978Z,5.04
2019-03-31T01:42:57.364Z,5.06
2019-03-31T01:45:26.035Z,5.07
2019-03-31T01:47:54.439Z,4.98
2019-03-31T01:50:23.107Z,4.90
2019-03-31T01:52:51.486Z,4.80
2019-03-31T01:55:19.896Z,4.82
2019-03-31T01:57:48.287Z,4.86
2019-03-31T02:00:35.268Z,4.87
2019-03-31T02:03:03.934Z,4.86
2019-03-31T02:05:32.326Z,4.87
2019-03-31T02:08:01.057Z,4.86
2019-03-31T02:10:29.449Z,4.86
2019-03-31T02:12:58.235Z,4.93
2019-03-31T02:15:26.702Z,4.99
2019-03-31T02:17:55.098Z,4.97
2019-03-31T02:20:23.514Z,4.92
2019-03-31T02:22:51.904Z,4.84
2019-03-31T02:25:20.571Z,4.86
2019-03-31T02:27:48.980Z,4.95
2019-03-31T02:30:17.507Z,4.98
2019-03-31T02:32:45.899Z,4.95
2019-03-31T02:35:14.498Z,4.91
2019-03-31T02:37:42.887Z,4.88
2019-03-31T02:40:11.411Z,4.80
2019-03-31T02:42:39.825Z,4.72
2019-03-31T02:45:08.548Z,4.66
2019-03-31T02:47:36.940Z,4.62
2019-03-31T02:50:07.174Z,4.58
2019-03-31T02:52:35.558Z,4.50
2019-03-31T02:55:04.402Z,4.42
2019-03-31T02:57:33.343Z,4.29
2019-03-31T03:00:02.820Z,4.21
2019-03-31T03:02:42.203Z,4.20
2019-03-31T03:05:18.881Z,4.20
2019-03-31T03:07:37.416Z,4.22
2019-03-31T03:10:06.135Z,4.23
2019-03-31T03:12:37.573Z,4.24
2019-03-31T03:15:07.514Z,4.25
2019-03-31T03:17:35.973Z,4.24
2019-03-31T03:20:05.325Z,4.24
2019-03-31T03:22:33.722Z,4.20
2019-03-31T03:25:02.172Z,4.13
2019-03-31T03:27:30.536Z,4.06
2019-03-31T03:29:58.924Z,3.99
2019-03-31T03:32:27.314Z,3.96
2019-03-31T03:34:55.743Z,3.97
2019-03-31T03:37:24.118Z,3.99
2019-03-31T03:39:52.511Z,4.00
2019-03-31T03:42:20.923Z,4.02
2019-03-31T03:44:49.310Z,4.02
2019-03-31T03:47:17.693Z,4.03
2019-03-31T03:49:46.105Z,4.02
2019-03-31T03:52:14.496Z,3.94
2019-03-31T03:54:42.886Z,3.86
2019-03-31T03:57:11.296Z,3.80
2019-03-31T03:59:39.689Z,3.76
2019-03-31T04:02:08.067Z,3.72
2019-03-31T04:04:36.477Z,3.69
2019-03-31T04:07:04.863Z,3.60
2019-03-31T04:09:33.247Z,3.55
2019-03-31T04:12:01.657Z,3.52
2019-03-31T04:14:30.045Z,3.49
2019-03-31T04:16:58.446Z,3.48
2019-03-31T04:19:26.863Z,3.42
2019-03-31T04:21:55.251Z,3.37
2019-03-31T04:24:23.635Z,3.33
2019-03-31T04:26:52.039Z,3.29
2019-03-31T04:29:20.782Z,3.27
2019-03-31T04:31:49.171Z,3.31
2019-03-31T04:34:17.588Z,3.49
2019-03-31T04:36:45.974Z,3.59
2019-03-31T04:39:14.366Z,3.54
2019-03-31T04:41:42.779Z,3.45
2019-03-31T04:44:11.183Z,3.39
2019-03-31T04:46:39.573Z,3.34
2019-03-31T04:49:07.989Z,3.32
2019-03-31T04:51:36.372Z,3.26
2019-03-31T04:54:05.127Z,3.21
2019-03-31T04:56:33.529Z,3.16
2019-03-31T04:59:01.921Z,3.13
2019-03-31T05:01:30.386Z,3.08
2019-03-31T05:04:04.977Z,3.06
2019-03-31T05:06:28.901Z,3.06
2019-03-31T05:08:57.302Z,3.02
2019-03-31T05:11:25.778Z,2.95
2019-03-31T05:13:54.189Z,2.92
2019-03-31T05:16:22.566Z,2.81
2019-03-31T05:18:50.958Z,2.77
2019-03-31T05:21:19.368Z,2.74
2019-03-31T05:23:47.751Z,2.74
2019-03-31T05:26:16.167Z,2.73
2019-03-31T05:28:44.558Z,2.73
2019-03-31T05:31:12.942Z,2.70
2019-03-31T05:33:41.345Z,2.70
2019-03-31T05:36:09.733Z,2.64
2019-03-31T05:38:38.148Z,2.62
2019-03-31T05:41:06.537Z,2.60
2019-03-31T05:43:34.935Z,2.56
2019-03-31T05:46:03.351Z,2.63
2019-03-31T05:48:31.734Z,2.71
2019-03-31T05:51:00.119Z,2.75
2019-03-31T05:53:28.540Z,2.80
2019-03-31T05:55:56.930Z,2.83
2019-03-31T05:58:25.323Z,2.87
2019-03-31T06:00:54.063Z,2.89
2019-03-31T06:03:22.444Z,2.93
2019-03-31T06:05:50.830Z,3.03
2019-03-31T06:08:19.234Z,3.16
2019-03-31T06:10:47.630Z,3.26
2019-03-31T06:13:16.024Z,3.38
2019-03-31T06:15:44.450Z,3.55
2019-03-31T06:18:12.839Z,3.70
2019-03-31T06:20:41.225Z,3.85
2019-03-31T06:23:09.963Z,4.13
2019-03-31T06:25:38.348Z,4.38
2019-03-31T06:28:06.730Z,4.57
2019-03-31T06:30:35.135Z,4.76
2019-03-31T06:33:03.551Z,4.86
2019-03-31T06:35:31.941Z,5.01
2019-03-31T06:38:00.329Z,5.33
2019-03-31T06:40:28.746Z,5.63
2019-03-31T06:42:57.204Z,5.78
2019-03-31T06:45:25.594Z,5.94
2019-03-31T06:47:54.003Z,6.12
2019-03-31T06:50:22.391Z,6.31
2019-03-31T06:52:50.784Z,6.53
2019-03-31T06:55:19.198Z,6.77
2019-03-31T06:57:47.588Z,6.96
2019-03-31T07:00:16.223Z,7.17
2019-03-31T07:02:44.635Z,7.38
2019-03-31T07:05:13.027Z,7.58
2019-03-31T07:07:41.421Z,7.77
2019-03-31T07:10:09.920Z,7.91
2019-03-31T07:12:38.303Z,8.05
2019-03-31T07:15:08.030Z,8.32
2019-03-31T07:17:36.506Z,8.71
2019-03-31T07:20:08.303Z,8.81
2019-03-31T07:22:36.694Z,8.99
2019-03-31T07:25:07.843Z,9.09
2019-03-31T07:27:36.682Z,9.16
2019-03-31T07:30:08.422Z,9.24
2019-03-31T07:32:36.960Z,9.44
2019-03-31T07:35:18.259Z,9.56
2019-03-31T07:37:47.566Z,9.71
2019-03-31T07:40:19.150Z,9.86
2019-03-31T07:42:50.881Z,9.98
2019-03-31T07:45:18.112Z,10.27
2019-03-31T07:47:46.536Z,10.65
2019-03-31T07:50:17.723Z,10.96
2019-03-31T07:52:46.119Z,11.40
2019-03-31T07:55:16.453Z,11.66
2019-03-31T07:57:45.199Z,11.91
2019-03-31T08:00:19.262Z,11.95
2019-03-31T08:02:49.208Z,12.11
2019-03-31T08:05:32.096Z,12.20
2019-03-31T08:07:48.501Z,12.59
2019-03-31T08:10:18.618Z,12.96
2019-03-31T08:12:47.008Z,13.08
2019-03-31T08:15:15.742Z,13.31
2019-03-31T08:17:44.247Z,13.37
2019-03-31T08:20:15.038Z,13.56
2019-03-31T08:22:43.438Z,13.76
2019-03-31T08:25:13.630Z,13.80
2019-03-31T08:27:42.033Z,14.03
2019-03-31T08:30:12.764Z,14.19
2019-03-31T08:32:41.661Z,14.28
2019-03-31T08:35:10.798Z,14.17
2019-03-31T08:37:39.193Z,14.18
2019-03-31T08:40:11.847Z,14.36
2019-03-31T08:42:40.238Z,14.54
2019-03-31T08:45:09.479Z,14.52
2019-03-31T08:47:38.414Z,14.80
2019-03-31T08:50:08.040Z,14.84
2019-03-31T08:52:36.437Z,15.03
2019-03-31T08:55:05.909Z,15.35
2019-03-31T08:57:34.844Z,15.59
2019-03-31T09:00:04.978Z,15.78
2019-03-31T09:02:34.741Z,16.33
2019-03-31T09:05:04.178Z,16.79
2019-03-31T09:07:32.596Z,16.89
2019-03-31T09:10:01.096Z,16.92
2019-03-31T09:12:29.496Z,17.11
2019-03-31T09:14:57.916Z,17.44
2019-03-31T09:17:26.306Z,17.48
2019-03-31T09:19:54.701Z,17.43
2019-03-31T09:22:23.138Z,17.57
2019-03-31T09:24:51.616Z,17.56
2019-03-31T09:27:20.016Z,17.64
2019-03-31T09:29:48.878Z,17.85
2019-03-31T09:32:17.274Z,18.11
2019-03-31T09:34:45.946Z,18.41
2019-03-31T09:37:14.373Z,18.59
2019-03-31T09:39:42.779Z,19.15
2019-03-31T09:42:11.177Z,19.66
2019-03-31T09:44:39.610Z,20.03
2019-03-31T09:47:08.072Z,20.49
2019-03-31T09:49:36.476Z,20.78
2019-03-31T09:52:05.137Z,20.86
2019-03-31T09:54:33.526Z,20.73
2019-03-31T09:57:01.927Z,20.23
2019-03-31T09:59:30.479Z,19.92
2019-03-31T10:01:58.887Z,19.77
2019-03-31T10:04:27.303Z,19.58
2019-03-31T10:06:56.463Z,19.49
2019-03-31T10:09:25.502Z,19.26
2019-03-31T10:11:54.150Z,19.20
2019-03-31T10:14:22.569Z,19.38
2019-03-31T10:16:50.978Z,19.53
2019-03-31T10:19:19.382Z,19.31
2019-03-31T10:21:47.806Z,19.19
2019-03-31T10:24:16.217Z,19.24
2019-03-31T10:26:44.613Z,19.13
2019-03-31T10:29:13.169Z,19.15
2019-03-31T10:31:41.567Z,19.02
2019-03-31T10:34:09.976Z,19.05
2019-03-31T10:36:44.420Z,18.91
2019-03-31T10:39:09.365Z,18.75
2019-03-31T10:41:37.774Z,18.96
2019-03-31T10:44:06.205Z,19.00
2019-03-31T10:46:34.606Z,19.02
2019-03-31T10:49:03.009Z,19.00
2019-03-31T10:51:31.451Z,18.91
2019-03-31T10:53:59.842Z,18.99
2019-03-31T10:56:28.241Z,19.01
2019-03-31T10:58:56.733Z,19.20
2019-03-31T11:01:25.131Z,19.32
2019-03-31T11:03:53.528Z,19.31
2019-03-31T11:06:22.283Z,19.37
2019-03-31T11:08:50.682Z,19.60
2019-03-31T11:11:19.151Z,19.35
2019-03-31T11:13:47.648Z,19.41
2019-03-31T11:16:16.317Z,19.60
2019-03-31T11:18:44.715Z,19.63
2019-03-31T11:21:14.766Z,19.63
2019-03-31T11:23:43.182Z,19.92
2019-03-31T11:26:11.569Z,20.00
2019-03-31T11:28:39.995Z,19.99
2019-03-31T11:31:08.387Z,19.95
2019-03-31T11:33:36.795Z,20.10
2019-03-31T11:36:05.224Z,20.47
2019-03-31T11:38:33.614Z,20.08
2019-03-31T11:41:02.040Z,19.87
2019-03-31T11:43:30.501Z,20.06
2019-03-31T11:45:58.903Z,20.31
2019-03-31T11:48:27.319Z,20.33
2019-03-31T11:50:55.719Z,19.88
2019-03-31T11:53:24.112Z,19.76
2019-03-31T11:55:52.528Z,19.89
2019-03-31T11:58:20.920Z,20.05
2019-03-31T12:00:50.963Z,20.20
2019-03-31T12:03:19.386Z,20.41
2019-03-31T12:05:47.855Z,20.10
2019-03-31T12:08:16.249Z,20.23
2019-03-31T12:10:44.681Z,20.40
2019-03-31T12:13:13.071Z,20.56
2019-03-31T12:15:41.476Z,20.40
2019-03-31T12:18:09.890Z,20.25
2019-03-31T12:20:38.291Z,20.09
2019-03-31T12:23:06.689Z,20.03
2019-03-31T12:25:35.113Z,20.07
2019-03-31T12:28:03.510Z,20.15
2019-03-31T12:30:31.907Z,20.26
2019-03-31T12:33:00.325Z,20.29
2019-03-31T12:35:28.725Z,20.52
2019-03-31T12:37:57.114Z,20.81
2019-03-31T12:40:36.268Z,20.88
2019-03-31T12:43:05.029Z,20.68
2019-03-31T12:45:33.421Z,20.47
2019-03-31T12:48:02.197Z,20.49
2019-03-31T12:50:30.661Z,20.47
2019-03-31T12:52:59.055Z,20.43
2019-03-31T12:55:27.461Z,20.36
2019-03-31T12:57:55.859Z,20.32
2019-03-31T13:00:24.252Z,20.23
2019-03-31T13:02:52.665Z,20.22
2019-03-31T13:05:21.061Z,20.26
2019-03-31T13:07:56.371Z,20.24
2019-03-31T13:10:19.607Z,20.24
2019-03-31T13:12:48.010Z,20.01
2019-03-31T13:15:16.407Z,19.73
2019-03-31T13:17:44.837Z,19.60
2019-03-31T13:20:13.673Z,19.45
2019-03-31T13:22:45.644Z,19.28
2019-03-31T13:25:13.292Z,18.93
2019-03-31T13:27:41.682Z,18.69
2019-03-31T13:30:10.758Z,18.60
2019-03-31T13:32:39.188Z,18.62
2019-03-31T13:35:08.703Z,18.66
2019-03-31T13:37:37.189Z,18.62
2019-03-31T13:40:08.924Z,18.56
2019-03-31T13:42:37.320Z,18.44
2019-03-31T13:45:06.685Z,18.46
2019-03-31T13:47:35.167Z,18.42
2019-03-31T13:50:05.346Z,18.29
2019-03-31T13:52:33.770Z,18.23
2019-03-31T13:55:02.245Z,18.18
2019-03-31T13:57:31.883Z,18.10
2019-03-31T14:00:00.997Z,18.02
2019-03-31T14:02:29.393Z,17.92
2019-03-31T14:04:57.790Z,17.90
2019-03-31T14:07:26.676Z,17.90
2019-03-31T14:09:55.083Z,17.88
2019-03-31T14:12:23.487Z,17.86
2019-03-31T14:14:51.911Z,17.81
2019-03-31T14:17:20.312Z,17.81
2019-03-31T14:19:48.771Z,17.78
2019-03-31T14:22:17.186Z,17.78
2019-03-31T14:24:45.600Z,17.79
2019-03-31T14:27:13.974Z,17.77
2019-03-31T14:29:42.735Z,17.80
2019-03-31T14:32:11.162Z,17.85
2019-03-31T14:34:39.563Z,17.85
2019-03-31T14:37:07.978Z,17.84
2019-03-31T14:39:36.378Z,17.79
2019-03-31T14:42:04.840Z,17.74
2019-03-31T14:44:33.247Z,17.73
2019-03-31T14:47:01.671Z,17.72
2019-03-31T14:49:30.062Z,17.74
2019-03-31T14:52:01.254Z,17.72
2019-03-31T14:54:28.610Z,17.70
2019-03-31T14:56:57.016Z,17.70
2019-03-31T14:59:25.411Z,17.74
2019-03-31T15:01:53.823Z,17.80
2019-03-31T15:04:22.224Z,17.81
2019-03-31T15:06:50.648Z,17.81
2019-03-31T15:09:19.046Z,17.76
2019-03-31T15:11:47.443Z,17.82
2019-03-31T15:14:16.165Z,17.81
2019-03-31T15:16:48.090Z,17.69
2019-03-31T15:19:14.719Z,17.72
2019-03-31T15:21:44.383Z,17.79
2019-03-31T15:24:12.892Z,17.78
2019-03-31T15:26:41.324Z,17.79
2019-03-31T15:29:09.720Z,17.89
2019-03-31T15:31:38.123Z,17.89
2019-03-31T15:34:06.866Z,17.79
2019-03-31T15:36:35.268Z,17.70
2019-03-31T15:39:08.955Z,17.64
2019-03-31T15:41:36.000Z,17.53
2019-03-31T15:44:04.848Z,17.42
2019-03-31T15:46:33.289Z,17.40
2019-03-31T15:49:01.689Z,17.40
2019-03-31T15:51:30.094Z,17.44
2019-03-31T15:53:58.545Z,17.49
2019-03-31T15:56:26.944Z,17.53
2019-03-31T15:58:55.339Z,17.54
2019-03-31T16:01:23.771Z,17.47
2019-03-31T16:03:52.242Z,17.52
2019-03-31T16:06:20.647Z,17.70
2019-03-31T16:08:49.073Z,17.98
2019-03-31T16:11:17.476Z,18.08
2019-03-31T16:13:45.906Z,18.12
2019-03-31T16:16:14.485Z,17.58
2019-03-31T16:18:42.896Z,17.25
2019-03-31T16:21:12.499Z,17.07
2019-03-31T16:23:40.862Z,16.97
2019-03-31T16:26:09.267Z,16.75
2019-03-31T16:28:37.697Z,16.71
2019-03-31T16:31:06.107Z,16.62
2019-03-31T16:33:34.507Z,16.49
2019-03-31T16:36:02.959Z,16.46
2019-03-31T16:38:31.338Z,16.39
2019-03-31T16:40:59.744Z,16.39
2019-03-31T16:43:28.163Z,16.26
2019-03-31T16:45:56.574Z,16.09
2019-03-31T16:48:24.974Z,16.07
2019-03-31T16:50:53.396Z,16.01
2019-03-31T16:53:21.803Z,16.03
2019-03-31T16:55:50.214Z,15.94
2019-03-31T16:58:18.639Z,15.88
2019-03-31T17:00:47.042Z,15.88
2019-03-31T17:03:18.210Z,15.79
2019-03-31T17:05:45.584Z,15.64
2019-03-31T17:08:13.978Z,15.59
2019-03-31T17:10:42.730Z,15.51
2019-03-31T17:13:11.144Z,15.44
2019-03-31T17:15:39.552Z,15.46
2019-03-31T17:18:07.967Z,15.41
2019-03-31T17:20:36.373Z,15.30
2019-03-31T17:23:04.771Z,15.20
2019-03-31T17:25:33.205Z,15.15
2019-03-31T17:28:01.597Z,15.02
2019-03-31T17:30:30.000Z,14.88
2019-03-31T17:32:58.424Z,14.75
2019-03-31T17:35:26.834Z,14.60
2019-03-31T17:37:55.248Z,14.45
2019-03-31T17:40:24.383Z,14.41
2019-03-31T17:42:52.793Z,14.32
2019-03-31T17:45:21.202Z,14.22
2019-03-31T17:47:49.623Z,14.14
2019-03-31T17:50:18.047Z,14.07
2019-03-31T17:52:46.519Z,13.95
2019-03-31T17:55:14.916Z,13.87
2019-03-31T17:57:43.348Z,13.75
2019-03-31T18:00:12.391Z,13.67
2019-03-31T18:02:41.032Z,13.58
2019-03-31T18:05:09.594Z,13.52
2019-03-31T18:07:38.053Z,13.38
2019-03-31T18:10:19.991Z,13.33
2019-03-31T18:12:38.049Z,13.27
2019-03-31T18:15:06.690Z,13.23
2019-03-31T18:17:35.097Z,13.20
2019-03-31T18:20:04.856Z,13.16
2019-03-31T18:22:33.257Z,13.06
2019-03-31T18:25:01.681Z,13.07
2019-03-31T18:27:30.092Z,12.96
2019-03-31T18:29:58.496Z,12.83
2019-03-31T18:32:26.922Z,12.77
2019-03-31T18:34:55.337Z,12.69
2019-03-31T18:37:23.743Z,12.63
2019-03-31T18:39:52.161Z,12.55
2019-03-31T18:42:20.585Z,12.51
2019-03-31T18:44:49.037Z,12.41
2019-03-31T18:47:17.426Z,12.33
2019-03-31T18:49:45.820Z,12.29
2019-03-31T18:52:14.255Z,12.27
2019-03-31T18:55:02.303Z,12.23
2019-03-31T18:57:38.110Z,12.22
2019-03-31T19:00:17.444Z,12.16
2019-03-31T19:02:50.170Z,12.09
2019-03-31T19:05:36.644Z,12.04
2019-03-31T19:08:22.682Z,12.01
2019-03-31T19:10:58.172Z,11.94
2019-03-31T19:13:54.690Z,11.87
2019-03-31T19:16:15.656Z,11.74
2019-03-31T19:18:45.695Z,11.74
2019-03-31T19:21:15.745Z,11.73
2019-03-31T19:24:05.482Z,11.75
2019-03-31T19:26:48.114Z,11.67
2019-03-31T19:29:11.909Z,11.60
2019-03-31T19:31:58.060Z,11.50
2019-03-31T19:34:36.741Z,11.43
2019-03-31T19:37:06.784Z,11.42
2019-03-31T19:39:49.071Z,11.46
2019-03-31T19:42:21.770Z,11.52
2019-03-31T19:44:54.606Z,11.54
2019-03-31T19:47:24.681Z,11.50
2019-03-31T19:49:55.144Z,11.53
2019-03-31T19:52:41.555Z,11.67
2019-03-31T19:55:26.920Z,11.74
2019-03-31T19:58:02.641Z,11.84
2019-03-31T20:00:32.679Z,11.76
2019-03-31T20:03:05.877Z,11.67
2019-03-31T20:05:53.853Z,11.54
2019-03-31T20:08:35.828Z,11.46
2019-03-31T20:11:15.129Z,11.37
2019-03-31T20:13:48.058Z,11.21
2019-03-31T20:16:18.102Z,11.12
2019-03-31T20:19:03.398Z,11.01
2019-03-31T20:21:33.428Z,10.94
2019-03-31T20:24:12.603Z,10.83
2019-03-31T20:26:48.572Z,10.74
2019-03-31T20:29:18.604Z,10.63
2019-03-31T20:31:48.674Z,10.53
2019-03-31T20:34:18.720Z,10.45
2019-03-31T20:36:54.759Z,10.43
2019-03-31T20:39:25.162Z,10.40
2019-03-31T20:42:00.701Z,10.35
2019-03-31T20:44:29.092Z,10.32
2019-03-31T20:46:57.527Z,10.28
2019-03-31T20:49:25.926Z,10.24
2019-03-31T20:51:54.329Z,10.22
2019-03-31T20:54:22.760Z,10.22
2019-03-31T20:56:51.162Z,10.16
2019-03-31T20:59:19.561Z,10.13
2019-03-31T21:01:47.980Z,10.11
2019-03-31T21:04:16.377Z,10.17
2019-03-31T21:06:44.782Z,10.09
2019-03-31T21:09:13.201Z,10.06
2019-03-31T21:11:41.602Z,10.03
2019-03-31T21:14:10.004Z,10.04
2019-03-31T21:16:38.447Z,10.02
2019-03-31T21:19:06.850Z,9.98
2019-03-31T21:21:35.243Z,9.94
2019-03-31T21:24:03.655Z,9.91
2019-03-31T21:26:32.367Z,9.94
2019-03-31T21:29:00.762Z,9.94
2019-03-31T21:31:29.339Z,9.92
2019-03-31T21:33:57.729Z,9.90
2019-03-31T21:36:26.198Z,9.85
2019-03-31T21:38:54.539Z,9.82
2019-03-31T21:41:22.942Z,9.88
2019-03-31T21:43:51.341Z,9.82
2019-03-31T21:46:19.778Z,9.80
2019-03-31T21:48:48.171Z,9.75
2019-03-31T21:51:16.571Z,9.71
2019-03-31T21:53:44.983Z,9.69
2019-03-31T21:56:13.387Z,9.64
2019-03-31T21:58:41.790Z,9.60
2019-03-31T22:01:10.308Z,9.59
2019-03-31T22:03:38.702Z,9.57
2019-03-31T22:06:07.112Z,9.56
2019-03-31T22:08:35.785Z,9.55
2019-03-31T22:11:04.194Z,9.46
2019-03-31T22:13:32.616Z,9.44
2019-03-31T22:16:01.026Z,9.42
2019-03-31T22:18:29.416Z,9.44
2019-03-31T22:20:57.848Z,9.42
2019-03-31T22:23:26.242Z,9.34
2019-03-31T22:25:54.643Z,9.33
2019-03-31T22:28:23.050Z,9.32
2019-03-31T22:30:51.451Z,9.30
2019-03-31T22:33:19.867Z,9.24
2019-03-31T22:36:06.362Z,9.19
2019-03-31T22:38:34.780Z,9.14
2019-03-31T22:41:03.171Z,9.18
2019-03-31T22:43:31.562Z,9.18
2019-03-31T22:46:00.122Z,9.12
2019-03-31T22:48:28.519Z,9.09
2019-03-31T22:50:56.922Z,9.04
2019-03-31T22:53:25.360Z,8.99
2019-03-31T22:55:53.759Z,8.96
2019-03-31T22:58:22.151Z,8.96
2019-03-31T23:00:50.850Z,8.96
2019-03-31T23:03:19.240Z,8.99
2019-03-31T23:05:47.645Z,8.95
2019-03-31T23:08:16.067Z,8.98
2019-03-31T23:10:44.735Z,8.98
2019-03-31T23:13:13.187Z,8.96
2019-03-31T23:15:41.581Z,8.90
2019-03-31T23:18:09.975Z,8.86
2019-03-31T23:20:38.396Z,8.82
2019-03-31T23:23:06.801Z,8.74
2019-03-31T23:25:35.189Z,8.71
2019-03-31T23:28:03.613Z,8.69
2019-03-31T23:30:32.011Z,8.67
2019-03-31T23:33:00.406Z,8.62
2019-03-31T23:35:28.833Z,8.57
2019-03-31T23:37:57.232Z,8.55
2019-03-31T23:40:25.625Z,8.49
2019-03-31T23:42:54.383Z,8.48
2019-03-31T23:45:22.735Z,8.46
2019-03-31T23:47:51.129Z,8.43
2019-03-31T23:50:19.555Z,8.38
2019-03-31T23:52:47.954Z,8.36
2019-03-31T23:55:16.359Z,8.30
2019-03-31T23:57:45.044Z,8.30
